Time;durP1;ratioP1;P1;durP2;ratioP2;P2;SDS_P1;SDS_P2;PMS_P1;PMS_P2;Temp;Humidity;BMP_temperature;BMP_pressure;BME280_temperature;BME280_humidity;BME280_pressure;Samples;Min_cycle;Max_cycle;Signal;HPM_P1;HPM_P2
2024/03/18 00:01:50;;;;;;;3.20;3.00;;;16.00;59.40;;;;;;5053984;28;20203;-63
2024/03/18 00:04:15;;;;;;;3.30;3.10;;;16.00;59.50;;;;;;5053549;28;20175;-62
2024/03/18 00:06:41;;;;;;;3.58;3.28;;;16.00;59.50;;;;;;5053217;28;20171;-62
2024/03/18 00:09:07;;;;;;;3.15;2.85;;;16.00;59.50;;;;;;5053627;28;20577;-63
2024/03/18 00:11:32;;;;;;;3.78;3.45;;;16.00;59.50;;;;;;5053786;28;20233;-62
2024/03/18 00:13:58;;;;;;;3.50;3.20;;;16.00;59.50;;;;;;5052803;28;20167;-62
2024/03/18 00:16:23;;;;;;;3.65;3.35;;;16.00;59.50;;;;;;5053343;28;20212;-62
2024/03/18 00:18:49;;;;;;;3.17;2.92;;;16.00;59.50;;;;;;5053596;28;20271;-62
2024/03/18 00:21:14;;;;;;;2.97;2.78;;;16.00;59.60;;;;;;5052351;28;20211;-63
2024/03/18 00:23:40;;;;;;;3.25;2.95;;;16.00;59.50;;;;;;5053428;28;20179;-63
2024/03/18 00:26:05;;;;;;;3.00;2.80;;;16.00;59.60;;;;;;5053683;28;20186;-62
2024/03/18 00:28:32;;;;;;;2.70;2.50;;;16.00;60.30;;;;;;5052615;28;20174;-62
2024/03/18 00:30:57;;;;;;;3.70;2.90;;;16.00;59.60;;;;;;5053396;28;20178;-62
2024/03/18 00:33:24;;;;;;;3.10;2.80;;;16.00;59.60;;;;;;5053055;28;20171;-63
2024/03/18 00:35:56;;;;;;;3.42;2.78;;;16.00;59.60;;;;;;5052707;28;20414;-63
2024/03/18 00:38:21;;;;;;;3.10;2.78;;;16.00;59.60;;;;;;5052860;28;20569;-63
2024/03/18 00:40:49;;;;;;;2.72;2.38;;;16.00;59.60;;;;;;5053024;28;20280;-63
2024/03/18 00:43:15;;;;;;;3.13;2.83;;;16.00;59.60;;;;;;5052369;28;20179;-63
2024/03/18 00:45:40;;;;;;;2.70;2.50;;;16.00;59.60;;;;;;5053011;28;20699;-63
2024/03/18 00:48:07;;;;;;;3.17;2.70;;;16.00;59.60;;;;;;5052169;28;20175;-63
2024/03/18 00:50:33;;;;;;;2.92;2.72;;;16.00;59.60;;;;;;5052792;28;20556;-63
2024/03/18 00:52:58;;;;;;;2.83;2.63;;;15.90;59.60;;;;;;5052765;28;20266;-62
2024/03/18 00:55:24;;;;;;;3.05;2.85;;;16.00;59.60;;;;;;5052090;28;20257;-63
2024/03/18 00:57:50;;;;;;;2.70;2.50;;;15.90;59.60;;;;;;5052972;28;20170;-63
2024/03/18 01:00:18;;;;;;;4.40;3.05;;;16.00;59.70;;;;;;5052592;28;20177;-63
2024/03/18 01:02:43;;;;;;;2.40;2.20;;;15.90;59.60;;;;;;5052009;28;20578;-63
2024/03/18 01:05:09;;;;;;;2.55;2.35;;;15.90;59.60;;;;;;5052253;28;20171;-62
2024/03/18 01:07:35;;;;;;;3.22;2.97;;;15.90;59.70;;;;;;5052946;28;20539;-63
2024/03/18 01:10:01;;;;;;;2.50;2.30;;;15.90;59.70;;;;;;5052007;28;20590;-62
2024/03/18 01:12:26;;;;;;;2.75;2.55;;;15.90;59.60;;;;;;5052406;28;20646;-62
2024/03/18 01:14:52;;;;;;;2.63;2.42;;;15.90;59.70;;;;;;5052458;28;20167;-62
2024/03/18 01:17:17;;;;;;;2.83;2.63;;;15.90;59.70;;;;;;5051498;28;20516;-62
2024/03/18 01:19:43;;;;;;;2.78;2.40;;;15.90;59.70;;;;;;5052415;28;20648;-62
2024/03/18 01:22:08;;;;;;;2.80;2.60;;;15.90;59.70;;;;;;5051957;28;20205;-62
2024/03/18 01:24:34;;;;;;;2.38;2.20;;;15.90;59.70;;;;;;5051840;28;20179;-62
2024/03/18 01:26:59;;;;;;;2.70;2.50;;;15.90;59.80;;;;;;5052360;28;20179;-62
2024/03/18 01:29:26;;;;;;;2.83;2.53;;;15.90;59.80;;;;;;5052103;28;20167;-62
2024/03/18 01:31:51;;;;;;;2.95;2.45;;;15.90;59.80;;;;;;5051567;28;20189;-62
2024/03/18 01:34:18;;;;;;;2.83;2.63;;;15.90;59.80;;;;;;5051911;28;20171;-63
2024/03/18 01:36:43;;;;;;;2.65;2.45;;;15.90;59.80;;;;;;5052084;28;20264;-63
2024/03/18 01:39:09;;;;;;;2.53;2.33;;;15.90;59.80;;;;;;5051283;28;20203;-63
2024/03/18 01:41:35;;;;;;;3.00;2.47;;;15.90;59.80;;;;;;5051874;28;20271;-63
2024/03/18 01:44:00;;;;;;;2.67;2.47;;;15.90;59.80;;;;;;5052076;28;20171;-63
2024/03/18 01:56:16;;;;;;;2.78;2.53;;;15.90;59.80;;;;;;5051261;28;20662;-63
2024/03/18 01:58:44;;;;;;;2.60;2.40;;;15.90;59.90;;;;;;5051380;28;20300;-62
2024/03/18 02:01:09;;;;;;;2.65;2.45;;;15.90;59.90;;;;;;5051434;28;20306;-62
2024/03/18 02:03:35;;;;;;;2.42;2.22;;;15.90;59.90;;;;;;5050392;28;20262;-63
2024/03/18 02:06:01;;;;;;;2.40;2.20;;;15.80;59.80;;;;;;5051443;28;20250;-63
2024/03/18 02:08:27;;;;;;;2.70;2.50;;;15.80;59.80;;;;;;5051612;28;20596;-62
2024/03/18 02:10:52;;;;;;;2.70;2.50;;;15.80;59.80;;;;;;5051508;28;20655;-62
2024/03/18 02:13:18;;;;;;;2.58;2.38;;;15.80;59.90;;;;;;5051034;28;20182;-62
2024/03/18 02:15:44;;;;;;;2.50;2.30;;;15.80;59.90;;;;;;5051588;28;20207;-62
2024/03/18 02:18:09;;;;;;;2.20;2.10;;;15.80;59.90;;;;;;5051008;28;20178;-62
2024/03/18 02:20:35;;;;;;;2.75;2.55;;;15.80;59.90;;;;;;5051131;28;20191;-63
2024/03/18 02:23:00;;;;;;;2.50;2.30;;;15.80;59.90;;;;;;5051670;28;20218;-62
2024/03/18 02:25:26;;;;;;;2.92;2.72;;;15.80;59.90;;;;;;5051210;28;20171;-62
2024/03/18 02:27:51;;;;;;;2.72;2.53;;;15.90;60.00;;;;;;5051078;28;20179;-62
2024/03/18 02:30:17;;;;;;;2.22;2.03;;;15.80;59.90;;;;;;5051291;28;20193;-62
2024/03/18 02:32:42;;;;;;;2.05;1.92;;;15.80;59.90;;;;;;5051368;28;20541;-62
2024/03/18 02:35:16;;;;;;;2.70;2.50;;;15.80;59.90;;;;;;5050677;28;20254;-62
2024/03/18 02:37:45;;;;;;;2.50;2.30;;;15.80;59.90;;;;;;5051713;28;20534;-63
2024/03/18 02:40:11;;;;;;;2.50;2.30;;;15.80;59.90;;;;;;5050691;28;20226;-63
2024/03/18 02:42:39;;;;;;;2.60;2.40;;;15.80;60.00;;;;;;5050919;28;20336;-63
2024/03/18 02:45:08;;;;;;;3.42;2.47;;;15.80;60.00;;;;;;5051276;28;20253;-62
2024/03/18 02:47:37;;;;;;;2.25;2.08;;;15.80;60.00;;;;;;5050870;28;20587;-63
2024/03/18 02:50:03;;;;;;;2.15;2.03;;;15.80;59.90;;;;;;5051413;28;20179;-63
2024/03/18 02:52:28;;;;;;;2.05;1.95;;;15.80;59.90;;;;;;5050769;28;20198;-63
2024/03/18 02:54:54;;;;;;;2.83;2.53;;;15.80;59.90;;;;;;5050938;28;20171;-66
2024/03/18 02:57:19;;;;;;;2.72;2.53;;;15.80;59.90;;;;;;5051152;28;20179;-63
2024/03/18 02:59:45;;;;;;;2.80;2.60;;;15.80;60.00;;;;;;5051258;28;20178;-65
2024/03/18 03:02:11;;;;;;;2.20;2.10;;;15.80;60.00;;;;;;5050597;28;20260;-63
2024/03/18 03:04:36;;;;;;;2.50;2.33;;;15.80;60.10;;;;;;5051570;28;20254;-62
2024/03/18 03:07:02;;;;;;;2.17;2.08;;;15.70;60.00;;;;;;5052773;28;20665;-63
2024/03/18 03:09:27;;;;;;;2.22;2.03;;;15.80;60.10;;;;;;5054098;28;20182;-63
2024/03/18 03:11:53;;;;;;;2.38;2.20;;;15.80;60.10;;;;;;5054737;28;20175;-62
2024/03/18 03:14:18;;;;;;;2.95;2.53;;;15.80;60.10;;;;;;5054343;28;20175;-62
2024/03/18 03:16:45;;;;;;;2.20;2.00;;;15.80;60.10;;;;;;5054269;28;20178;-62
2024/03/18 03:19:10;;;;;;;2.90;2.70;;;15.70;60.10;;;;;;5054280;28;20656;-62
2024/03/18 03:21:36;;;;;;;3.03;2.10;;;15.70;60.10;;;;;;5054505;28;20202;-63
2024/03/18 03:24:02;;;;;;;2.38;2.20;;;15.70;60.10;;;;;;5054017;28;20175;-62
2024/03/18 03:26:29;;;;;;;2.35;2.20;;;15.70;60.10;;;;;;5054403;28;20185;-62
2024/03/18 03:28:55;;;;;;;2.58;2.17;;;15.70;60.20;;;;;;5054212;28;20215;-62
2024/03/18 03:31:21;;;;;;;2.50;2.30;;;15.70;60.10;;;;;;5053915;28;20179;-62
2024/03/18 03:33:46;;;;;;;2.25;1.90;;;15.70;60.20;;;;;;5054622;28;20534;-63
2024/03/18 03:36:12;;;;;;;2.63;2.28;;;15.80;60.20;;;;;;5053851;28;20653;-63
2024/03/18 03:38:37;;;;;;;2.55;2.35;;;15.70;60.20;;;;;;5054023;28;20179;-63
2024/03/18 03:41:03;;;;;;;2.60;2.35;;;15.70;60.20;;;;;;5054040;28;20223;-63
2024/03/18 03:43:29;;;;;;;2.92;1.90;;;15.80;60.20;;;;;;5053718;28;20563;-63
2024/03/18 03:46:02;;;;;;;2.60;2.40;;;15.70;60.20;;;;;;5053606;28;20178;-63
2024/03/18 03:48:28;;;;;;;2.33;2.13;;;15.70;60.20;;;;;;5053886;28;20267;-63
2024/03/18 03:50:54;;;;;;;2.45;2.30;;;15.70;60.30;;;;;;5053710;28;20176;-63
2024/03/18 03:53:19;;;;;;;2.40;2.20;;;15.70;60.20;;;;;;5053687;28;20178;-63
2024/03/18 03:55:51;;;;;;;2.53;2.33;;;15.70;60.30;;;;;;5053911;28;20175;-63
2024/03/18 03:58:17;;;;;;;2.60;2.40;;;15.80;60.30;;;;;;5053246;28;20272;-63
2024/03/18 04:00:43;;;;;;;2.72;2.53;;;15.70;60.20;;;;;;5054134;28;20178;-63
2024/03/18 04:03:09;;;;;;;2.80;2.60;;;15.70;60.30;;;;;;5053204;28;20576;-63
2024/03/18 04:05:36;;;;;;;2.40;2.20;;;15.70;60.30;;;;;;5053493;28;20176;-63
2024/03/18 04:08:02;;;;;;;3.03;2.38;;;15.70;60.30;;;;;;5053776;28;20604;-63
2024/03/18 04:10:28;;;;;;;3.05;2.40;;;15.70;60.30;;;;;;5053259;28;20187;-63
2024/03/18 04:12:53;;;;;;;3.03;2.58;;;15.70;60.30;;;;;;5053066;28;20197;-62
2024/03/18 04:15:19;;;;;;;2.83;2.53;;;15.70;60.40;;;;;;5053621;28;20182;-62
2024/03/18 04:17:44;;;;;;;3.50;2.45;;;15.70;60.40;;;;;;5053248;28;20186;-63
2024/03/18 04:20:19;;;;;;;2.47;2.28;;;15.70;60.40;;;;;;5052783;28;20552;-62
2024/03/18 04:22:48;;;;;;;2.63;2.35;;;15.70;60.40;;;;;;5053600;28;20210;-62
2024/03/18 04:25:14;;;;;;;2.63;2.42;;;15.70;60.40;;;;;;5052769;28;20267;-62
2024/03/18 04:27:41;;;;;;;2.67;2.47;;;15.70;60.40;;;;;;5052918;28;20179;-63
2024/03/18 04:30:10;;;;;;;3.50;2.47;;;15.70;60.40;;;;;;5053575;28;20183;-63
2024/03/18 04:32:35;;;;;;;2.50;2.30;;;15.70;60.50;;;;;;5053331;28;20187;-62
2024/03/18 04:35:06;;;;;;;2.30;2.10;;;15.70;60.50;;;;;;5052847;28;20175;-63
2024/03/18 04:37:34;;;;;;;2.95;2.20;;;15.70;60.50;;;;;;5052773;28;20701;-63
2024/03/18 04:40:01;;;;;;;3.13;2.30;;;15.70;60.40;;;;;;5052366;28;20234;-63
2024/03/18 04:42:26;;;;;;;3.22;2.53;;;15.70;60.50;;;;;;5052986;28;20219;-63
2024/03/18 04:44:52;;;;;;;2.72;2.53;;;15.70;61.40;;;;;;5053009;28;20265;-63
2024/03/18 04:47:17;;;;;;;2.60;2.40;;;15.70;60.50;;;;;;5052387;28;20256;-63
2024/03/18 04:49:43;;;;;;;2.72;2.08;;;15.70;60.50;;;;;;5053122;28;20250;-63
2024/03/18 04:52:08;;;;;;;2.45;2.25;;;15.70;60.50;;;;;;5052516;28;20258;-63
2024/03/18 04:54:34;;;;;;;2.50;2.30;;;15.70;60.50;;;;;;5052404;28;20175;-63
2024/03/18 04:56:59;;;;;;;2.30;2.10;;;15.70;60.60;;;;;;5052940;28;20174;-63
2024/03/18 04:59:25;;;;;;;2.20;2.00;;;15.70;60.50;;;;;;5052448;28;20175;-63
2024/03/18 05:01:50;;;;;;;2.67;2.47;;;15.70;60.50;;;;;;5052489;28;20548;-63
2024/03/18 05:04:16;;;;;;;2.13;2.03;;;15.70;60.60;;;;;;5052433;28;20178;-63
2024/03/18 05:06:41;;;;;;;2.30;2.10;;;15.70;60.60;;;;;;5052538;28;20202;-63
2024/03/18 05:09:09;;;;;;;2.65;2.45;;;15.70;60.60;;;;;;5052027;28;20490;-62
2024/03/18 05:11:35;;;;;;;2.45;2.25;;;15.60;60.50;;;;;;5052575;28;20258;-63
2024/03/18 05:14:01;;;;;;;2.47;2.13;;;15.60;60.60;;;;;;5052433;28;20312;-62
2024/03/18 05:16:27;;;;;;;2.30;2.10;;;15.70;60.70;;;;;;5051861;28;20187;-63
2024/03/18 05:18:53;;;;;;;2.40;2.20;;;15.60;60.60;;;;;;5052454;28;20301;-63
2024/03/18 05:21:18;;;;;;;2.22;2.08;;;15.70;60.70;;;;;;5051744;28;20650;-62
2024/03/18 05:23:44;;;;;;;3.28;2.33;;;15.60;60.60;;;;;;5051926;28;20179;-62
2024/03/18 05:26:11;;;;;;;2.55;2.35;;;15.60;60.60;;;;;;5051935;28;20947;-62
2024/03/18 05:28:37;;;;;;;4.60;2.10;;;15.60;60.60;;;;;;5051852;28;20655;-62
2024/03/18 05:31:02;;;;;;;2.42;2.13;;;15.60;60.60;;;;;;5051371;28;20175;-62
2024/03/18 05:33:28;;;;;;;2.67;2.38;;;15.60;60.70;;;;;;5052039;28;20186;-62
2024/03/18 05:35:53;;;;;;;2.60;2.38;;;15.60;60.60;;;;;;5052001;28;20278;-63
2024/03/18 05:38:19;;;;;;;4.05;2.42;;;15.60;60.70;;;;;;5051331;28;20265;-63
2024/03/18 05:40:45;;;;;;;2.67;2.30;;;15.60;60.70;;;;;;5051607;28;20239;-62
2024/03/18 05:43:10;;;;;;;2.47;2.10;;;15.60;60.70;;;;;;5051885;28;20215;-62
2024/03/18 05:45:36;;;;;;;2.65;2.42;;;15.60;60.70;;;;;;5051760;28;20167;-62
2024/03/18 05:48:01;;;;;;;2.50;2.30;;;15.60;60.60;;;;;;5051897;28;20175;-62
2024/03/18 05:50:27;;;;;;;2.30;2.10;;;15.60;60.70;;;;;;5051435;28;20179;-62
2024/03/18 05:52:53;;;;;;;2.42;2.22;;;15.60;60.70;;;;;;5051953;28;20649;-62
2024/03/18 05:55:19;;;;;;;3.50;2.78;;;15.60;60.70;;;;;;5051411;28;20186;-62
2024/03/18 05:57:47;;;;;;;2.80;2.28;;;15.60;60.80;;;;;;5051398;28;20186;-63
2024/03/18 06:00:13;;;;;;;2.70;2.50;;;15.60;60.70;;;;;;5051594;28;20202;-63
2024/03/18 06:02:39;;;;;;;2.58;2.38;;;15.60;60.70;;;;;;5051556;28;20242;-62
2024/03/18 06:05:05;;;;;;;3.25;2.30;;;15.60;60.80;;;;;;5051291;28;20179;-63
2024/03/18 06:07:30;;;;;;;2.72;2.53;;;15.60;60.80;;;;;;5051319;28;20179;-63
2024/03/18 06:09:56;;;;;;;2.05;1.95;;;15.60;60.80;;;;;;5051354;28;20229;-62
2024/03/18 06:12:25;;;;;;;2.85;2.65;;;15.60;60.80;;;;;;5050862;28;20179;-61
2024/03/18 06:14:51;;;;;;;3.65;2.50;;;15.60;60.80;;;;;;5051554;28;20551;-61
2024/03/18 06:17:16;;;;;;;2.70;2.50;;;15.60;60.80;;;;;;5051063;28;20167;-61
2024/03/18 06:19:42;;;;;;;2.60;2.40;;;15.60;60.80;;;;;;5051110;28;20167;-61
2024/03/18 06:22:20;;;;;;;2.72;2.33;;;15.60;60.80;;;;;;5051354;28;20240;-62
2024/03/18 06:27:30;;;;;;;2.10;1.95;;;15.60;60.80;;;;;;5050881;28;20589;-61
2024/03/18 06:29:55;;;;;;;2.72;2.50;;;15.60;60.80;;;;;;5051106;28;20261;-61
2024/03/18 06:32:21;;;;;;;2.33;2.13;;;15.60;60.80;;;;;;5051161;28;20171;-61
2024/03/18 06:34:46;;;;;;;2.50;2.30;;;15.60;60.80;;;;;;5051327;28;20262;-62
2024/03/18 06:37:12;;;;;;;2.85;2.30;;;15.60;60.80;;;;;;5050937;28;20266;-63
2024/03/18 06:39:37;;;;;;;2.28;2.08;;;15.60;60.80;;;;;;5050852;28;20258;-64
2024/03/18 06:42:04;;;;;;;2.58;2.08;;;15.60;60.80;;;;;;5054871;28;20257;-63
2024/03/18 06:44:30;;;;;;;3.08;2.22;;;15.60;60.80;;;;;;5054895;28;20728;-63
2024/03/18 06:46:56;;;;;;;2.55;2.35;;;15.60;60.80;;;;;;5054770;28;20191;-62
2024/03/18 06:49:21;;;;;;;3.45;2.40;;;15.60;60.80;;;;;;5055189;28;20233;-62
2024/03/18 06:51:48;;;;;;;2.17;2.05;;;15.60;60.80;;;;;;5055079;28;20513;-62
2024/03/18 06:54:14;;;;;;;2.20;2.10;;;15.60;60.80;;;;;;5054286;28;20633;-62
2024/03/18 06:56:39;;;;;;;2.53;2.25;;;15.70;61.10;;;;;;5055297;28;20183;-63
2024/03/18 06:59:05;;;;;;;3.97;2.33;;;15.70;61.10;;;;;;5055397;28;20214;-63
2024/03/18 07:01:30;;;;;;;2.10;1.90;;;15.80;61.10;;;;;;5054127;28;20225;-63
2024/03/18 07:03:56;;;;;;;2.22;2.03;;;15.90;61.00;;;;;;5055005;28;20670;-62
2024/03/18 07:06:21;;;;;;;2.25;2.08;;;16.00;61.00;;;;;;5054711;28;20665;-63
2024/03/18 07:08:47;;;;;;;2.65;2.20;;;16.10;61.50;;;;;;5054536;28;20645;-63
2024/03/18 07:11:14;;;;;;;3.40;2.25;;;16.30;60.50;;;;;;5054443;28;20175;-62
2024/03/18 07:13:40;;;;;;;2.10;1.90;;;16.40;60.30;;;;;;5054656;28;20186;-62
2024/03/18 07:16:06;;;;;;;2.30;2.10;;;16.60;60.00;;;;;;5054202;28;20175;-62
2024/03/18 07:18:32;;;;;;;3.13;1.90;;;16.70;59.70;;;;;;5054446;28;20269;-62
2024/03/18 07:20:58;;;;;;;1.80;1.70;;;16.90;59.60;;;;;;5054321;28;20626;-62
2024/03/18 07:23:24;;;;;;;1.83;1.73;;;16.90;59.30;;;;;;5053881;28;20218;-62
2024/03/18 07:25:50;;;;;;;2.22;1.75;;;16.90;59.40;;;;;;5054619;28;20171;-62
2024/03/18 07:28:16;;;;;;;1.65;1.55;;;16.90;59.30;;;;;;5054219;28;20186;-62
2024/03/18 07:30:46;;;;;;;1.80;1.70;;;17.00;59.20;;;;;;5053995;28;20171;-62
2024/03/18 07:33:11;;;;;;;2.13;1.95;;;17.00;59.20;;;;;;5054097;28;20179;-63
2024/03/18 07:35:37;;;;;;;1.80;1.70;;;17.10;59.20;;;;;;5054663;28;20292;-63
2024/03/18 07:38:02;;;;;;;1.88;1.73;;;17.10;59.00;;;;;;5052785;28;20173;-63
2024/03/18 07:40:28;;;;;;;1.65;1.55;;;17.10;59.10;;;;;;5053606;28;20262;-63
2024/03/18 07:42:53;;;;;;;2.83;2.00;;;17.20;59.10;;;;;;5053618;28;20213;-63
2024/03/18 07:45:20;;;;;;;2.00;1.80;;;17.20;59.10;;;;;;5053893;28;20167;-63
2024/03/18 07:47:45;;;;;;;5.55;2.20;;;17.20;59.20;;;;;;5054410;28;20258;-63
2024/03/18 07:50:11;;;;;;;2.92;1.98;;;17.20;59.20;;;;;;5053271;28;20274;-63
2024/03/18 07:52:36;;;;;;;4.47;1.80;;;17.30;59.30;;;;;;5053547;28;20175;-63
2024/03/18 07:55:02;;;;;;;2.30;1.55;;;17.30;59.40;;;;;;5053932;28;20262;-62
2024/03/18 07:57:28;;;;;;;3.33;1.40;;;17.40;59.40;;;;;;5053408;28;20183;-64
2024/03/18 07:59:56;;;;;;;3.42;2.13;;;17.40;59.40;;;;;;5053915;28;20175;-65
2024/03/18 08:02:22;;;;;;;5.05;1.98;;;17.50;59.20;;;;;;5053305;28;20246;-65
2024/03/18 08:04:49;;;;;;;5.13;1.98;;;17.60;59.20;;;;;;5053679;28;20202;-64
2024/03/18 08:07:15;;;;;;;2.10;1.85;;;17.60;59.00;;;;;;5053681;28;20183;-65
2024/03/18 08:09:40;;;;;;;2.83;1.50;;;17.70;59.10;;;;;;5053694;28;20185;-65
2024/03/18 08:12:06;;;;;;;3.25;1.90;;;17.70;58.90;;;;;;5053152;28;20544;-65
2024/03/18 08:14:33;;;;;;;4.75;2.03;;;17.70;58.90;;;;;;5053398;28;20630;-64
2024/03/18 08:17:01;;;;;;;3.92;2.00;;;17.70;59.10;;;;;;5053391;28;20253;-64
2024/03/18 08:19:26;;;;;;;5.43;2.13;;;17.70;59.10;;;;;;5053107;28;20229;-65
2024/03/18 08:21:52;;;;;;;7.68;2.10;;;17.70;59.20;;;;;;5053558;28;20677;-66
2024/03/18 08:24:17;;;;;;;4.13;2.20;;;17.60;59.20;;;;;;5053111;28;20664;-65
2024/03/18 08:26:43;;;;;;;1.90;1.70;;;17.60;59.40;;;;;;5053106;28;20175;-65
2024/03/18 08:29:09;;;;;;;4.35;2.08;;;17.50;59.50;;;;;;5052842;28;20171;-66
2024/03/18 08:31:34;;;;;;;6.65;2.38;;;17.50;59.50;;;;;;5053382;28;20175;-65
2024/03/18 08:34:00;;;;;;;2.45;2.00;;;17.40;59.70;;;;;;5052928;28;20181;-66
2024/03/18 08:36:25;;;;;;;3.35;2.00;;;17.30;59.90;;;;;;5052946;28;20258;-66
2024/03/18 08:38:51;;;;;;;5.65;2.50;;;17.10;59.90;;;;;;5053256;28;20597;-65
2024/03/18 08:41:18;;;;;;;3.58;2.22;;;17.20;60.20;;;;;;5052145;28;20685;-66
2024/03/18 08:43:43;;;;;;;3.25;2.28;;;17.20;60.20;;;;;;5052928;28;20553;-65
2024/03/18 08:46:09;;;;;;;2.75;2.15;;;17.20;60.40;;;;;;5052382;28;20175;-65
2024/03/18 08:48:34;;;;;;;2.50;2.30;;;17.10;60.30;;;;;;5053157;28;20175;-64
2024/03/18 08:51:00;;;;;;;3.17;2.17;;;17.20;60.40;;;;;;5052934;28;20170;-64
2024/03/18 08:53:26;;;;;;;3.75;2.20;;;17.10;60.50;;;;;;5052359;28;20182;-65
2024/03/18 08:55:51;;;;;;;3.13;2.55;;;17.10;60.50;;;;;;5052889;28;20179;-65
2024/03/18 08:58:20;;;;;;;2.95;2.25;;;17.10;60.50;;;;;;5052449;28;20168;-65
2024/03/18 09:00:45;;;;;;;2.80;2.13;;;17.00;60.50;;;;;;5052586;28;20182;-65
2024/03/18 09:03:12;;;;;;;5.45;2.90;;;17.10;60.60;;;;;;5051980;28;20210;-65
2024/03/18 09:05:37;;;;;;;3.60;2.50;;;17.00;60.50;;;;;;5051881;28;20178;-65
2024/03/18 09:08:04;;;;;;;3.53;2.70;;;17.00;60.70;;;;;;5052080;28;20183;-65
2024/03/18 09:10:30;;;;;;;2.70;2.33;;;16.90;60.60;;;;;;5052463;28;20185;-65
2024/03/18 09:12:55;;;;;;;3.20;2.50;;;16.90;60.90;;;;;;5052333;28;20194;-63
2024/03/18 09:15:21;;;;;;;2.78;2.30;;;16.90;60.90;;;;;;5051957;28;20179;-63
2024/03/18 09:17:47;;;;;;;2.63;2.05;;;16.90;60.90;;;;;;5052652;28;20528;-64
2024/03/18 09:20:19;;;;;;;2.70;2.28;;;17.00;60.90;;;;;;5052090;28;20565;-63
2024/03/18 09:22:45;;;;;;;2.00;1.80;;;17.00;60.90;;;;;;5052052;28;20210;-64
2024/03/18 09:25:11;;;;;;;2.25;1.98;;;17.00;60.90;;;;;;5051863;28;20183;-63
2024/03/18 09:27:37;;;;;;;3.95;2.33;;;16.90;60.90;;;;;;5052449;28;20652;-64
2024/03/18 09:30:04;;;;;;;2.63;2.03;;;16.90;60.90;;;;;;5052049;28;20174;-64
2024/03/18 09:32:30;;;;;;;2.67;2.10;;;16.90;61.00;;;;;;5051992;28;20201;-63
2024/03/18 09:34:55;;;;;;;3.60;2.60;;;16.80;60.90;;;;;;5052362;28;20638;-65
2024/03/18 09:37:21;;;;;;;3.88;2.45;;;16.80;61.10;;;;;;5051565;28;20590;-65
2024/03/18 09:39:46;;;;;;;2.22;2.03;;;16.80;61.10;;;;;;5051949;28;20646;-65
2024/03/18 09:42:12;;;;;;;4.10;2.30;;;16.80;61.30;;;;;;5051922;28;20264;-65
2024/03/18 09:44:38;;;;;;;4.15;2.30;;;16.80;61.30;;;;;;5050412;28;20172;-64
2024/03/18 09:47:04;;;;;;;2.50;2.22;;;16.80;61.30;;;;;;5051893;28;20218;-64
2024/03/18 09:49:30;;;;;;;2.67;2.40;;;16.80;61.20;;;;;;5050053;28;20203;-65
2024/03/18 09:51:55;;;;;;;2.55;2.28;;;16.80;61.20;;;;;;5050643;28;20175;-64
2024/03/18 09:54:21;;;;;;;2.40;2.25;;;16.80;61.20;;;;;;5050282;28;20174;-65
2024/03/18 09:56:49;;;;;;;3.30;2.40;;;16.80;61.20;;;;;;5051349;28;20979;-65
2024/03/18 09:59:14;;;;;;;3.60;2.35;;;16.80;61.20;;;;;;5050496;28;20214;-65
2024/03/18 10:01:40;;;;;;;3.45;2.53;;;16.80;61.20;;;;;;5051892;28;20242;-65
2024/03/18 10:04:06;;;;;;;3.35;2.42;;;16.70;61.10;;;;;;5051451;28;20229;-64
2024/03/18 10:06:33;;;;;;;4.30;2.58;;;16.70;61.10;;;;;;5051615;28;20175;-65
2024/03/18 10:08:59;;;;;;;2.40;2.17;;;16.70;61.10;;;;;;5051416;28;20175;-65
2024/03/18 10:11:24;;;;;;;2.67;2.20;;;16.80;61.10;;;;;;5051156;28;20178;-65
2024/03/18 10:13:50;;;;;;;2.20;2.03;;;16.80;61.10;;;;;;5051929;28;20595;-64
2024/03/18 10:16:15;;;;;;;3.20;2.25;;;16.90;61.00;;;;;;5050851;28;20175;-64
2024/03/18 10:18:41;;;;;;;2.95;2.33;;;16.90;60.80;;;;;;5051270;28;20184;-64
2024/03/18 10:21:08;;;;;;;2.40;2.20;;;17.00;60.70;;;;;;5051653;28;20533;-64
2024/03/18 10:23:33;;;;;;;2.90;2.60;;;17.10;60.70;;;;;;5050235;28;20191;-64
2024/03/18 10:26:02;;;;;;;2.80;2.28;;;17.10;60.50;;;;;;5050995;28;20177;-65
2024/03/18 10:28:28;;;;;;;2.55;2.35;;;17.10;60.40;;;;;;5051250;28;20205;-64
2024/03/18 10:30:54;;;;;;;2.40;2.20;;;17.10;60.50;;;;;;5051610;28;20621;-65
2024/03/18 10:33:19;;;;;;;3.38;2.60;;;17.00;60.60;;;;;;5049618;28;20191;-65
2024/03/18 10:35:48;;;;;;;4.40;2.53;;;17.00;60.80;;;;;;5051436;28;20570;-65
2024/03/18 10:38:23;;;;;;;2.40;2.20;;;17.00;61.00;;;;;;5050998;28;20178;-65
2024/03/18 10:40:52;;;;;;;3.67;2.45;;;16.90;61.10;;;;;;5050791;28;20688;-64
2024/03/18 10:43:23;;;;;;;2.50;2.30;;;16.90;61.10;;;;;;5049831;28;20225;-65
2024/03/18 10:45:48;;;;;;;2.97;2.40;;;16.90;61.10;;;;;;5049922;28;20183;-64
2024/03/18 10:48:17;;;;;;;4.07;2.38;;;16.90;61.10;;;;;;5049804;28;20171;-64
2024/03/18 10:50:47;;;;;;;2.75;2.28;;;17.00;60.90;;;;;;5051169;28;20661;-65
2024/03/18 10:53:18;;;;;;;2.97;2.75;;;17.00;61.60;;;;;;5049404;28;20207;-65
2024/03/18 10:55:44;;;;;;;6.50;3.33;;;17.00;61.10;;;;;;5051553;28;20183;-66
2024/03/18 10:58:10;;;;;;;4.45;3.97;;;17.00;61.40;;;;;;5050844;28;20167;-66
2024/03/18 11:00:35;;;;;;;4.30;3.90;;;16.90;61.50;;;;;;5049685;28;20274;-65
2024/03/18 11:03:03;;;;;;;5.00;4.47;;;16.80;61.60;;;;;;5051071;28;20202;-65
2024/03/18 11:05:30;;;;;;;4.60;3.83;;;16.80;61.80;;;;;;5050668;28;20179;-65
2024/03/18 11:07:59;;;;;;;3.70;3.33;;;16.80;61.90;;;;;;5050655;28;20176;-65
2024/03/18 11:10:30;;;;;;;5.07;3.35;;;16.70;61.90;;;;;;5050763;28;20188;-64
2024/03/18 11:13:05;;;;;;;3.78;3.13;;;16.70;62.00;;;;;;5051202;28;20171;-64
2024/03/18 11:15:31;;;;;;;5.00;3.55;;;16.70;62.10;;;;;;5049365;28;20179;-64
2024/03/18 11:18:03;;;;;;;4.43;3.13;;;16.70;62.60;;;;;;5050760;28;20174;-64
2024/03/18 11:20:29;;;;;;;4.25;3.08;;;16.70;62.20;;;;;;5050836;28;20183;-64
2024/03/18 11:22:56;;;;;;;3.97;3.15;;;16.60;62.10;;;;;;5050509;28;20219;-64
2024/03/18 11:25:26;;;;;;;4.00;3.42;;;16.70;62.10;;;;;;5050674;28;20179;-64
2024/03/18 11:27:54;;;;;;;3.67;3.22;;;16.60;62.10;;;;;;5051327;28;20232;-65
2024/03/18 11:30:27;;;;;;;6.82;3.58;;;16.60;62.00;;;;;;5054089;28;20199;-64
2024/03/18 11:32:52;;;;;;;6.00;3.45;;;16.60;62.20;;;;;;5054377;28;20180;-64
2024/03/18 11:35:18;;;;;;;4.25;3.05;;;16.60;62.10;;;;;;5053802;28;20631;-65
2024/03/18 11:37:47;;;;;;;5.68;3.30;;;16.60;62.10;;;;;;5054622;28;20175;-65
2024/03/18 11:40:15;;;;;;;4.70;3.00;;;16.60;62.20;;;;;;5053666;28;20629;-65
2024/03/18 11:42:42;;;;;;;4.20;3.20;;;16.60;62.30;;;;;;5053844;28;20214;-65
2024/03/18 11:45:15;;;;;;;3.65;2.92;;;16.60;62.30;;;;;;5052722;28;20191;-65
2024/03/18 11:47:41;;;;;;;2.97;2.78;;;16.60;62.40;;;;;;5053035;28;20183;-64
2024/03/18 11:50:06;;;;;;;3.92;2.65;;;16.60;62.80;;;;;;5053791;28;20178;-66
2024/03/18 11:52:32;;;;;;;8.18;3.42;;;16.60;62.50;;;;;;5053775;28;20179;-64
2024/03/18 11:54:58;;;;;;;4.25;3.10;;;16.60;62.50;;;;;;5054121;28;20202;-65
2024/03/18 11:57:23;;;;;;;9.65;3.75;;;16.60;62.50;;;;;;5053245;28;20654;-66
2024/03/18 11:59:49;;;;;;;8.48;3.65;;;16.60;62.50;;;;;;5054103;28;20175;-65
2024/03/18 12:02:15;;;;;;;7.07;3.22;;;16.70;62.90;;;;;;5053750;28;20218;-65
2024/03/18 12:04:41;;;;;;;7.93;3.40;;;16.80;62.50;;;;;;5053597;28;20638;-65
2024/03/18 12:07:07;;;;;;;6.30;3.10;;;16.90;62.00;;;;;;5053655;28;20171;-66
2024/03/18 12:09:34;;;;;;;4.78;3.33;;;16.90;61.80;;;;;;5052658;28;20641;-63
2024/03/18 12:12:00;;;;;;;5.75;3.13;;;17.00;61.90;;;;;;5051655;28;20182;-64
2024/03/18 12:14:26;;;;;;;5.72;2.85;;;17.00;61.70;;;;;;5052341;28;20167;-63
2024/03/18 12:16:53;;;;;;;4.07;3.67;;;17.10;61.50;;;;;;5052539;28;20194;-64
2024/03/18 12:19:19;;;;;;;6.18;3.25;;;17.30;61.30;;;;;;5051753;28;20241;-63
2024/03/18 12:21:46;;;;;;;3.55;3.25;;;17.30;61.10;;;;;;5053391;28;20199;-64
2024/03/18 12:29:40;;;;;;;5.35;3.33;;;17.20;61.60;;;;;;5053344;28;20241;-63
2024/03/18 12:32:06;;;;;;;4.43;3.13;;;17.20;61.80;;;;;;5051503;28;20175;-65
2024/03/18 12:34:32;;;;;;;6.05;3.80;;;17.20;61.80;;;;;;5052857;28;20179;-65
2024/03/18 12:37:00;;;;;;;4.72;3.58;;;17.20;61.90;;;;;;5053199;28;20175;-65
2024/03/18 12:39:29;;;;;;;8.25;4.00;;;17.10;61.80;;;;;;5051963;28;20167;-65
2024/03/18 12:41:59;;;;;;;5.53;3.70;;;17.20;62.00;;;;;;5053051;28;20325;-65
2024/03/18 12:44:26;;;;;;;7.63;4.10;;;17.20;61.80;;;;;;5053038;28;20509;-65
2024/03/18 12:46:51;;;;;;;8.93;3.85;;;17.20;61.70;;;;;;5052533;28;20638;-64
2024/03/18 12:49:17;;;;;;;7.20;4.53;;;17.20;61.90;;;;;;5052496;28;20181;-65
2024/03/18 12:51:42;;;;;;;9.75;3.95;;;17.10;61.90;;;;;;5053278;28;20258;-65
2024/03/18 12:54:09;;;;;;;7.50;4.05;;;17.10;62.00;;;;;;5052449;28;20206;-65
2024/03/18 12:56:35;;;;;;;6.95;4.22;;;17.00;62.00;;;;;;5052976;28;20214;-65
2024/03/18 12:59:01;;;;;;;6.47;3.70;;;17.00;62.00;;;;;;5052876;28;20254;-65
2024/03/18 13:01:27;;;;;;;6.70;3.90;;;17.00;62.20;;;;;;5052037;28;20232;-65